Time;durP1;ratioP1;P1;durP2;ratioP2;P2;SDS_P1;SDS_P2;PMS_P1;PMS_P2;Temp;Humidity;BMP_temperature;BMP_pressure;BME280_temperature;BME280_humidity;BME280_pressure;Samples;Min_cycle;Max_cycle;Signal;HPM_P1;HPM_P2
2021/10/20 00:01:58;;;;;;;11.45;2.35;;;;;;;12.59;77.24;99583.25;5043356;28;20029;-79
2021/10/20 00:04:26;;;;;;;13.98;2.28;;;;;;;12.58;77.35;99576.09;5056289;28;20530;-79
2021/10/20 00:06:53;;;;;;;12.45;3.20;;;;;;;12.59;77.34;99583.25;5046681;28;20549;-79
2021/10/20 00:09:19;;;;;;;11.25;2.53;;;;;;;12.56;77.14;99577.69;5044060;28;20754;-79
2021/10/20 00:11:47;;;;;;;11.05;2.33;;;;;;;12.50;77.20;99577.25;5058270;28;20106;-80
2021/10/20 00:14:14;;;;;;;21.23;3.28;;;;;;;12.48;77.21;99576.03;5045635;28;20503;-79
2021/10/20 00:16:41;;;;;;;12.55;2.10;;;;;;;12.47;77.35;99582.78;5044090;28;20036;-80
2021/10/20 00:19:08;;;;;;;9.00;3.22;;;;;;;12.45;77.26;99588.72;5059578;28;20118;-80
2021/10/20 00:21:36;;;;;;;14.55;2.40;;;;;;;12.45;77.38;99594.25;5060434;28;20036;-79
2021/10/20 00:24:03;;;;;;;16.38;4.30;;;;;;;12.44;77.52;99589.91;5063742;28;20051;-80
2021/10/20 00:26:30;;;;;;;8.35;1.60;;;;;;;12.49;77.60;99595.09;5060552;28;20044;-80
2021/10/20 00:28:57;;;;;;;5.53;1.80;;;;;;;12.54;77.56;99591.16;5062118;28;20488;-79
2021/10/20 00:31:24;;;;;;;10.82;2.30;;;;;;;12.55;77.35;99587.97;5042880;28;20040;-79
2021/10/20 00:33:50;;;;;;;13.10;2.75;;;;;;;12.59;77.89;99577.72;5045912;28;20373;-78
2021/10/20 00:36:17;;;;;;;11.10;1.90;;;;;;;12.64;77.87;99569.00;5045950;28;20040;-78
2021/10/20 00:38:44;;;;;;;13.73;3.10;;;;;;;12.69;77.75;99571.41;5041833;28;20436;-80
2021/10/20 00:41:12;;;;;;;13.20;2.75;;;;;;;12.75;77.56;99574.63;5037837;28;20049;-80
2021/10/20 00:43:40;;;;;;;8.98;1.50;;;;;;;12.79;77.43;99572.66;5038337;28;20493;-79
2021/10/20 00:46:11;;;;;;;7.47;2.03;;;;;;;12.81;77.27;99573.09;5059788;28;20114;-79
2021/10/20 00:48:38;;;;;;;8.93;1.77;;;;;;;12.84;77.37;99573.09;5061029;28;20116;-79
2021/10/20 00:51:05;;;;;;;11.90;2.03;;;;;;;12.83;77.08;99574.28;5056923;28;20403;-79
2021/10/20 00:53:32;;;;;;;8.68;1.88;;;;;;;12.80;77.15;99566.72;5059721;28;20037;-78
2021/10/20 00:55:59;;;;;;;11.48;1.60;;;;;;;12.74;77.12;99559.13;5039063;28;20037;-79
2021/10/20 00:58:25;;;;;;;15.13;1.95;;;;;;;12.67;77.23;99567.44;5042748;28;20049;-79
2021/10/20 01:00:52;;;;;;;9.55;2.05;;;;;;;12.62;77.38;99549.19;5053684;28;20042;-79
2021/10/20 01:03:19;;;;;;;9.32;2.40;;;;;;;12.55;77.32;99548.34;5039377;28;20130;-79
2021/10/20 01:05:46;;;;;;;6.93;1.42;;;;;;;12.50;77.66;99535.59;5062001;28;20043;-79
2021/10/20 01:08:12;;;;;;;13.48;2.08;;;;;;;12.45;77.40;99538.75;5046074;28;20036;-79
2021/10/20 01:10:39;;;;;;;14.00;2.58;;;;;;;12.36;77.47;99529.97;5058100;28;20453;-78
2021/10/20 01:13:06;;;;;;;10.43;1.85;;;;;;;12.33;77.77;99535.50;5044220;28;20036;-79
2021/10/20 01:15:33;;;;;;;10.95;2.10;;;;;;;12.32;77.77;99529.13;5044351;28;20526;-79
2021/10/20 01:18:00;;;;;;;12.32;2.50;;;;;;;12.26;77.68;99533.44;5044545;28;20049;-78
2021/10/20 01:20:31;;;;;;;6.30;1.60;;;;;;;12.21;77.90;99528.25;5040177;28;20047;-79
2021/10/20 01:22:58;;;;;;;12.97;2.53;;;;;;;12.21;77.86;99525.50;5063363;28;20050;-79
2021/10/20 01:25:25;;;;;;;12.40;3.28;;;;;;;12.20;77.79;99532.25;5063123;28;20044;-79
2021/10/20 01:27:52;;;;;;;11.55;3.08;;;;;;;12.20;77.62;99521.91;5058416;28;20121;-79
2021/10/20 01:30:18;;;;;;;15.05;2.33;;;;;;;12.19;77.61;99525.09;5041438;28;20046;-80
2021/10/20 01:32:45;;;;;;;9.23;1.63;;;;;;;12.17;77.55;99525.47;5045425;28;20043;-79
2021/10/20 01:35:12;;;;;;;12.50;1.88;;;;;;;12.13;77.72;99519.09;5057849;28;20068;-79
2021/10/20 01:37:40;;;;;;;8.13;2.35;;;;;;;12.12;77.73;99525.03;5059416;28;20893;-79
2021/10/20 01:40:08;;;;;;;11.27;2.17;;;;;;;12.09;78.04;99520.25;5057310;28;20479;-79
2021/10/20 01:42:36;;;;;;;15.93;2.20;;;;;;;12.07;77.71;99522.63;5058213;28;20090;-79
2021/10/20 01:45:07;;;;;;;10.85;1.90;;;;;;;12.01;78.06;99513.06;5054729;28;20119;-79
2021/10/20 01:47:33;;;;;;;9.75;1.70;;;;;;;11.99;77.92;99512.66;5045894;28;20047;-79
2021/10/20 01:50:00;;;;;;;12.20;2.88;;;;;;;11.93;78.22;99512.22;5059643;28;20052;-78
2021/10/20 01:52:27;;;;;;;15.55;2.92;;;;;;;11.92;78.32;99493.97;5059647;28;20488;-79
2021/10/20 01:54:53;;;;;;;8.73;1.73;;;;;;;11.91;78.01;99502.69;5043598;28;20405;-79
2021/10/20 01:57:20;;;;;;;11.40;2.78;;;;;;;11.91;78.09;99497.94;5046490;28;20039;-79
2021/10/20 01:59:47;;;;;;;7.13;1.70;;;;;;;11.92;78.03;99490.41;5060060;28;20028;-79
2021/10/20 02:02:18;;;;;;;11.57;2.00;;;;;;;11.92;77.87;99487.63;5036502;28;20037;-79
2021/10/20 02:04:47;;;;;;;9.00;1.90;;;;;;;11.89;77.91;99482.84;5051891;28;20037;-79
2021/10/20 02:07:14;;;;;;;11.07;1.92;;;;;;;11.89;77.89;99478.09;5066405;28;20044;-79
2021/10/20 02:09:40;;;;;;;6.32;1.95;;;;;;;11.88;77.56;99470.16;5059637;28;20040;-79
2021/10/20 02:12:07;;;;;;;7.22;1.85;;;;;;;11.88;77.72;99470.16;5045194;28;20043;-79
2021/10/20 02:14:35;;;;;;;13.35;2.13;;;;;;;11.83;77.91;99468.56;5064155;28;20143;-78
2021/10/20 02:17:03;;;;;;;6.97;1.52;;;;;;;11.81;77.93;99459.03;5060860;28;20070;-79
2021/10/20 02:19:30;;;;;;;9.38;1.67;;;;;;;11.78;77.98;99460.56;5055980;28;20071;-78
2021/10/20 02:21:58;;;;;;;9.65;1.80;;;;;;;11.75;78.04;99463.34;5061813;28;20051;-79
2021/10/20 02:24:25;;;;;;;17.65;2.85;;;;;;;11.70;78.41;99458.16;5045049;28;20036;-79
2021/10/20 02:26:52;;;;;;;10.73;2.10;;;;;;;11.66;78.47;99454.50;5026001;28;20056;-79
2021/10/20 02:29:19;;;;;;;11.02;1.75;;;;;;;11.65;78.35;99442.63;5053982;28;20052;-79
2021/10/20 02:31:46;;;;;;;14.23;3.13;;;;;;;11.66;78.38;99446.19;5064856;28;20041;-79
2021/10/20 02:34:18;;;;;;;10.52;2.17;;;;;;;11.65;78.51;99445.38;5064756;28;20036;-79
2021/10/20 02:36:45;;;;;;;7.13;1.73;;;;;;;11.62;78.32;99438.63;5056535;28;20057;-78
2021/10/20 02:39:12;;;;;;;15.27;2.30;;;;;;;11.59;78.25;99433.88;5061175;28;20498;-79
2021/10/20 02:41:39;;;;;;;11.90;1.88;;;;;;;11.59;78.43;99425.56;5063207;28;20064;-79
2021/10/20 02:44:06;;;;;;;9.93;1.98;;;;;;;11.57;78.57;99416.81;5063411;28;20041;-79
2021/10/20 02:46:34;;;;;;;14.77;3.53;;;;;;;11.59;78.10;99408.13;5046909;28;20044;-79
2021/10/20 02:49:00;;;;;;;15.77;2.00;;;;;;;11.58;78.14;99403.75;5063949;28;20049;-79
2021/10/20 02:51:29;;;;;;;8.27;2.05;;;;;;;11.60;78.04;99404.16;5061745;28;20127;-79
2021/10/20 02:53:57;;;;;;;10.90;2.28;;;;;;;11.59;78.16;99405.34;5043424;28;20048;-78
2021/10/20 02:56:25;;;;;;;13.35;3.85;;;;;;;11.53;78.29;99395.81;5062708;28;20044;-79
2021/10/20 02:58:53;;;;;;;11.27;2.42;;;;;;;11.46;78.62;99392.97;5061554;28;20032;-78
2021/10/20 03:01:20;;;;;;;11.23;2.33;;;;;;;11.41;78.74;99385.81;5042230;28;20051;-80
2021/10/20 03:03:47;;;;;;;9.02;1.80;;;;;;;11.36;78.82;99372.31;5061925;28;20144;-79
2021/10/20 03:06:15;;;;;;;9.05;1.70;;;;;;;11.34;78.93;99384.94;5062361;28;20046;-79
2021/10/20 03:08:43;;;;;;;8.32;2.17;;;;;;;11.32;78.93;99377.03;5063000;28;20052;-79
2021/10/20 03:11:10;;;;;;;10.82;2.00;;;;;;;11.27;79.39;99369.06;5058715;28;20068;-79
2021/10/20 03:13:36;;;;;;;7.32;1.50;;;;;;;11.22;79.21;99360.31;5059707;28;20042;-79
2021/10/20 03:16:04;;;;;;;16.50;2.67;;;;;;;11.19;79.47;99361.09;5045976;28;20051;-79
2021/10/20 03:18:30;;;;;;;8.60;3.63;;;;;;;11.18;79.36;99363.03;5063731;28;20493;-78
2021/10/20 03:20:57;;;;;;;10.60;2.30;;;;;;;11.13;79.54;99357.88;5063495;28;20055;-79
2021/10/20 03:23:24;;;;;;;9.25;2.40;;;;;;;11.11;79.74;99356.66;5059502;28;20047;-79
2021/10/20 03:25:51;;;;;;;9.10;1.58;;;;;;;11.10;79.73;99353.09;5059895;28;20068;-78
2021/10/20 03:28:18;;;;;;;7.85;2.05;;;;;;;11.07;79.75;99358.63;5057812;28;20523;-79
2021/10/20 03:30:45;;;;;;;10.25;2.72;;;;;;;11.06;79.57;99357.81;5063474;28;20043;-78
2021/10/20 03:33:11;;;;;;;34.15;5.10;;;;;;;11.05;79.73;99353.44;5062149;28;20048;-79
2021/10/20 03:35:39;;;;;;;8.10;1.95;;;;;;;11.07;79.59;99350.31;5061014;28;20111;-79
2021/10/20 03:38:06;;;;;;;9.57;1.42;;;;;;;11.05;79.77;99338.78;5030419;28;20060;-79
2021/10/20 03:40:34;;;;;;;9.45;2.30;;;;;;;11.05;80.02;99330.47;5046078;28;20047;-79
2021/10/20 03:43:02;;;;;;;13.68;2.13;;;;;;;11.05;79.73;99327.72;5060217;28;20041;-79
2021/10/20 03:45:29;;;;;;;9.70;2.67;;;;;;;11.04;80.34;99315.84;5058369;28;20142;-79
2021/10/20 03:47:55;;;;;;;13.23;2.97;;;;;;;11.08;79.92;99308.38;5044710;28;20047;-79
2021/10/20 03:50:22;;;;;;;14.00;3.10;;;;;;;11.11;79.69;99318.69;5046221;28;20049;-78
2021/10/20 03:52:49;;;;;;;7.18;2.97;;;;;;;11.13;79.76;99310.78;5064116;28;20044;-79
2021/10/20 03:55:16;;;;;;;12.65;3.30;;;;;;;11.17;79.79;99303.31;5060616;28;20045;-79
2021/10/20 03:57:42;;;;;;;16.00;3.65;;;;;;;11.22;79.57;99299.38;5062518;28;20456;-79
2021/10/20 04:00:16;;;;;;;21.48;4.05;;;;;;;11.18;79.58;99293.78;5046516;28;20071;-79
2021/10/20 04:02:44;;;;;;;9.57;3.10;;;;;;;11.17;79.73;99297.75;5057817;28;20059;-79
2021/10/20 04:05:13;;;;;;;14.23;3.10;;;;;;;11.18;80.12;99296.56;5043614;28;20040;-78
2021/10/20 04:07:40;;;;;;;10.07;2.70;;;;;;;11.21;79.96;99290.25;5062498;28;20480;-79
2021/10/20 04:10:11;;;;;;;10.50;2.42;;;;;;;11.29;79.58;99289.13;5061495;28;20131;-79
2021/10/20 04:12:38;;;;;;;14.93;3.05;;;;;;;11.32;79.69;99288.38;5040894;28;20049;-79
2021/10/20 04:15:05;;;;;;;12.77;2.85;;;;;;;11.31;79.55;99281.22;5056225;28;20036;-80
2021/10/20 04:17:32;;;;;;;12.85;3.83;;;;;;;11.30;79.45;99276.88;5063109;28;20047;-79
2021/10/20 04:19:58;;;;;;;12.00;4.10;;;;;;;11.29;79.75;99266.97;5058947;28;20072;-79
2021/10/20 04:22:26;;;;;;;10.80;2.47;;;;;;;11.29;79.86;99278.06;5045829;28;20056;-78
2021/10/20 04:24:52;;;;;;;4.80;1.60;;;;;;;11.30;80.09;99265.00;5061697;28;20047;-79
2021/10/20 04:27:19;;;;;;;15.73;4.10;;;;;;;11.31;80.00;99258.25;5041368;28;20119;-79
2021/10/20 04:29:46;;;;;;;10.23;1.98;;;;;;;11.29;79.82;99255.88;5042629;28;20048;-79
2021/10/20 04:32:12;;;;;;;12.63;1.92;;;;;;;11.31;80.05;99256.28;5041723;28;20127;-79
2021/10/20 04:34:39;;;;;;;10.98;2.20;;;;;;;11.31;80.00;99256.28;5057249;28;20036;-79
2021/10/20 04:37:06;;;;;;;13.82;2.47;;;;;;;11.30;80.24;99251.94;5039930;28;20516;-79
2021/10/20 04:39:33;;;;;;;6.85;2.95;;;;;;;11.33;80.05;99251.16;5038741;28;20056;-79
2021/10/20 04:42:00;;;;;;;14.25;3.40;;;;;;;11.39;80.06;99241.31;5060205;28;20052;-79
2021/10/20 04:44:26;;;;;;;18.33;3.92;;;;;;;11.45;79.85;99234.22;5059030;28;20040;-79
2021/10/20 04:46:53;;;;;;;17.30;5.25;;;;;;;11.48;79.68;99236.22;5042326;28;20036;-79
2021/10/20 04:49:20;;;;;;;11.32;3.22;;;;;;;11.46;80.01;99237.78;5044307;28;20045;-78
2021/10/20 04:51:47;;;;;;;13.02;4.07;;;;;;;11.48;79.69;99236.22;5059678;28;20037;-79
2021/10/20 04:54:13;;;;;;;26.40;7.13;;;;;;;11.48;79.62;99230.69;5061262;28;20041;-79
2021/10/20 04:56:40;;;;;;;17.05;4.30;;;;;;;11.51;79.71;99224.38;5043748;28;20511;-79
2021/10/20 04:59:07;;;;;;;8.23;3.47;;;;;;;11.55;79.33;99219.63;5061736;28;20677;-79
2021/10/20 05:01:34;;;;;;;11.95;3.17;;;;;;;11.57;78.81;99206.16;5059794;28;20053;-79
2021/10/20 05:04:00;;;;;;;10.45;3.53;;;;;;;11.58;79.10;99207.75;5060925;28;20044;-79
2021/10/20 05:06:27;;;;;;;9.85;2.58;;;;;;;11.55;79.27;99210.50;5039188;28;20510;-78
2021/10/20 05:08:54;;;;;;;14.48;2.92;;;;;;;11.53;79.38;99210.09;5056649;28;20049;-79
2021/10/20 05:11:21;;;;;;;11.05;2.63;;;;;;;11.52;79.45;99203.75;5040736;28;20157;-78
2021/10/20 05:13:47;;;;;;;13.02;3.33;;;;;;;11.54;79.47;99206.94;5059072;28;20044;-79
2021/10/20 05:16:14;;;;;;;8.88;1.98;;;;;;;11.57;79.42;99200.63;5056616;28;20045;-79
2021/10/20 05:18:41;;;;;;;10.45;2.08;;;;;;;11.60;79.11;99196.25;5054206;28;20053;-79
2021/10/20 05:21:07;;;;;;;11.55;2.25;;;;;;;11.58;79.21;99180.03;5044254;28;20055;-79
2021/10/20 05:23:34;;;;;;;15.15;2.65;;;;;;;11.57;79.25;99174.88;5064035;28;20044;-79
2021/10/20 05:26:01;;;;;;;9.45;1.85;;;;;;;11.56;79.46;99181.63;5041333;28;20519;-79
2021/10/20 05:28:28;;;;;;;15.00;1.98;;;;;;;11.56;79.34;99185.19;5045919;28;20106;-79
2021/10/20 05:30:54;;;;;;;8.95;1.92;;;;;;;11.55;79.60;99180.81;5066719;28;20517;-79
2021/10/20 05:33:21;;;;;;;11.15;2.58;;;;;;;11.55;79.61;99171.69;5049076;28;20400;-79
2021/10/20 05:35:48;;;;;;;9.45;3.22;;;;;;;11.55;79.80;99168.94;5048605;28;20055;-78
2021/10/20 05:38:15;;;;;;;11.40;2.17;;;;;;;11.53;79.74;99160.22;5064405;28;20056;-79
2021/10/20 05:40:42;;;;;;;17.65;2.63;;;;;;;11.52;79.81;99159.41;5049504;28;20047;-79
2021/10/20 05:43:08;;;;;;;12.82;3.05;;;;;;;11.52;79.94;99164.97;5044955;28;20047;-80
2021/10/20 05:45:35;;;;;;;13.75;2.63;;;;;;;11.51;79.95;99168.13;5063419;28;20485;-79
2021/10/20 05:48:02;;;;;;;7.15;2.15;;;;;;;11.52;80.09;99159.41;5043482;28;20068;-79
2021/10/20 05:50:29;;;;;;;19.00;3.85;;;;;;;11.50;79.93;99156.25;5066046;28;20040;-79
2021/10/20 05:52:57;;;;;;;11.90;1.63;;;;;;;11.46;80.26;99160.97;5067351;28;20515;-79
2021/10/20 05:55:24;;;;;;;9.15;2.35;;;;;;;11.43;80.28;99155.44;5062053;28;20132;-79
2021/10/20 05:57:50;;;;;;;16.25;3.60;;;;;;;11.41;80.47;99150.25;5061255;28;20064;-79
2021/10/20 06:00:17;;;;;;;12.80;1.92;;;;;;;11.41;80.42;99147.47;5064449;28;20102;-78
2021/10/20 06:02:44;;;;;;;12.65;2.50;;;;;;;11.41;80.50;99147.47;5063531;28;20051;-79
2021/10/20 06:05:11;;;;;;;13.13;2.28;;;;;;;11.38;80.35;99151.06;5029373;28;20051;-79
2021/10/20 06:07:43;;;;;;;5.82;1.80;;;;;;;11.38;80.65;99150.25;5048116;28;20049;-79
2021/10/20 06:10:12;;;;;;;15.75;3.15;;;;;;;11.37;80.56;99145.88;5059905;28;20044;-78
2021/10/20 06:12:39;;;;;;;11.30;2.33;;;;;;;11.33;80.72;99129.25;5046753;28;20041;-78
2021/10/20 06:15:13;;;;;;;8.55;2.75;;;;;;;11.27;80.94;99130.81;5059097;28;20112;-79
2021/10/20 06:18:01;;;;;;;17.60;4.35;;;;;;;11.27;81.21;99130.03;5044965;28;20211;-79
2021/10/20 06:20:28;;;;;;;11.43;3.05;;;;;;;11.25;81.15;99130.38;5066466;28;20116;-79
2021/10/20 06:22:55;;;;;;;16.35;1.83;;;;;;;11.29;81.12;99128.44;5064519;28;20050;-78
2021/10/20 06:25:22;;;;;;;11.70;3.03;;;;;;;11.29;81.22;99134.00;5059678;28;20044;-80
2021/10/20 06:27:48;;;;;;;10.13;2.45;;;;;;;11.30;81.01;99123.72;5063883;28;20087;-79
2021/10/20 06:30:15;;;;;;;17.30;2.83;;;;;;;11.30;81.15;99124.50;5062567;28;20040;-80
2021/10/20 06:32:43;;;;;;;14.50;3.35;;;;;;;11.31;81.31;99117.75;5060428;28;20037;-80
2021/10/20 06:35:13;;;;;;;10.10;2.28;;;;;;;11.31;81.31;99120.53;5060625;28;20044;-80
2021/10/20 06:37:46;;;;;;;10.50;3.20;;;;;;;11.33;81.20;99118.16;5041922;28;20052;-80
2021/10/20 06:40:13;;;;;;;15.57;3.63;;;;;;;11.35;81.13;99113.03;5063210;28;20059;-80
2021/10/20 06:42:40;;;;;;;17.65;3.15;;;;;;;11.34;81.23;99118.97;5066527;28;20040;-80
2021/10/20 06:45:07;;;;;;;13.50;2.80;;;;;;;11.30;81.53;99116.19;5060006;28;20057;-79
2021/10/20 06:47:34;;;;;;;17.05;3.30;;;;;;;11.28;81.54;99115.00;5063405;28;20400;-80
2021/10/20 06:50:00;;;;;;;21.40;5.97;;;;;;;11.27;81.85;99103.13;5060242;28;20175;-81
2021/10/20 06:52:27;;;;;;;16.33;2.67;;;;;;;11.28;81.92;99104.69;5061683;28;20791;-80
2021/10/20 06:54:54;;;;;;;12.05;2.67;;;;;;;11.25;82.25;99102.69;5065812;28;20063;-80
2021/10/20 06:57:21;;;;;;;9.32;2.30;;;;;;;11.26;82.16;99101.50;5031023;28;20041;-81
2021/10/20 06:59:47;;;;;;;10.93;2.53;;;;;;;11.29;81.98;99103.50;5063792;28;20050;-80
2021/10/20 07:02:14;;;;;;;12.25;2.95;;;;;;;11.30;82.04;99104.31;5061267;28;20040;-80
2021/10/20 07:04:41;;;;;;;12.93;2.90;;;;;;;11.27;82.11;99097.56;5064792;28;20068;-81
2021/10/20 07:07:12;;;;;;;11.43;3.38;;;;;;;11.26;82.27;99084.91;5041636;28;20044;-80
2021/10/20 07:09:39;;;;;;;9.30;2.60;;;;;;;11.25;82.44;99083.28;5057686;28;20121;-79
2021/10/20 07:12:06;;;;;;;12.65;3.10;;;;;;;11.19;82.78;99087.66;5062491;28;20043;-80
2021/10/20 07:14:33;;;;;;;12.18;2.67;;;;;;;11.17;82.76;99081.72;5062442;28;20155;-80
2021/10/20 07:16:59;;;;;;;14.85;2.53;;;;;;;11.17;83.03;99081.72;5060285;28;20076;-79
2021/10/20 07:19:27;;;;;;;9.35;2.45;;;;;;;11.16;83.04;99087.63;5056567;28;20083;-79
2021/10/20 07:21:53;;;;;;;10.95;2.92;;;;;;;11.15;83.31;99084.06;5059921;28;20043;-78
2021/10/20 07:24:20;;;;;;;20.15;5.07;;;;;;;11.15;83.36;99083.25;5061534;28;20127;-80
2021/10/20 07:26:50;;;;;;;11.65;2.30;;;;;;;11.17;83.34;99080.91;5043063;28;20041;-80
2021/10/20 07:29:17;;;;;;;9.80;2.00;;;;;;;11.17;83.42;99080.91;5045375;28;20050;-80
2021/10/20 07:31:44;;;;;;;13.63;2.90;;;;;;;11.15;83.30;99070.19;5022022;28;20041;-80
2021/10/20 07:34:11;;;;;;;14.85;2.80;;;;;;;11.17;83.40;99067.84;5056576;28;20055;-79
2021/10/20 07:36:38;;;;;;;12.30;2.70;;;;;;;11.16;83.10;99069.03;5060418;28;20044;-80
2021/10/20 07:39:05;;;;;;;15.02;3.65;;;;;;;11.18;83.26;99061.13;5035990;28;21067;-80
2021/10/20 07:41:32;;;;;;;12.25;5.15;;;;;;;11.19;83.47;99061.91;5055347;28;20052;-80
2021/10/20 07:43:59;;;;;;;17.50;3.15;;;;;;;11.17;83.69;99051.25;5059192;28;20484;-80
2021/10/20 07:46:26;;;;;;;15.75;3.40;;;;;;;11.18;83.70;99055.59;5042249;28;20049;-79
2021/10/20 07:48:53;;;;;;;11.45;2.42;;;;;;;11.18;83.70;99043.69;5060663;28;20041;-80
2021/10/20 07:51:20;;;;;;;13.18;2.78;;;;;;;11.16;83.92;99052.41;5042964;28;20041;-79
2021/10/20 07:53:46;;;;;;;10.60;3.28;;;;;;;11.17;84.24;99051.25;5059890;28;20037;-80
2021/10/20 07:56:13;;;;;;;17.40;2.97;;;;;;;11.18;84.15;99054.78;5056087;28;20075;-79
2021/10/20 07:58:40;;;;;;;11.63;2.85;;;;;;;11.19;84.01;99053.59;5042913;28;20045;-79
2021/10/20 08:01:07;;;;;;;9.38;3.03;;;;;;;11.20;84.11;99064.28;5046723;28;20049;-80
2021/10/20 08:03:34;;;;;;;18.88;4.70;;;;;;;11.21;84.00;99065.88;5035476;28;20049;-81
2021/10/20 08:06:01;;;;;;;16.85;3.38;;;;;;;11.20;84.17;99061.50;5045517;28;20047;-80
2021/10/20 08:08:28;;;;;;;13.38;3.63;;;;;;;11.21;84.02;99062.31;5050284;28;20131;-79
2021/10/20 08:10:55;;;;;;;16.60;3.47;;;;;;;11.21;83.82;99070.63;5059465;28;20052;-79
2021/10/20 08:13:22;;;;;;;15.98;3.10;;;;;;;11.22;83.83;99078.56;5057689;28;20131;-79
2021/10/20 08:15:50;;;;;;;16.92;3.63;;;;;;;11.28;83.60;99082.53;5057786;28;20040;-79
2021/10/20 08:18:16;;;;;;;15.65;3.88;;;;;;;11.26;83.35;99076.59;5052876;28;20049;-81
2021/10/20 08:20:43;;;;;;;15.18;3.53;;;;;;;11.22;83.40;99078.56;5031755;28;20044;-80
2021/10/20 08:23:10;;;;;;;22.13;4.07;;;;;;;11.21;83.52;99076.97;5055481;28;20040;-80
2021/10/20 08:25:37;;;;;;;10.65;2.60;;;;;;;11.24;83.33;99081.72;5027488;28;20041;-79
2021/10/20 08:28:05;;;;;;;13.88;3.65;;;;;;;11.24;82.94;99081.72;5061314;28;20823;-80
2021/10/20 08:30:34;;;;;;;15.10;3.33;;;;;;;11.28;82.99;99088.06;5063225;28;20098;-79
2021/10/20 08:33:02;;;;;;;15.45;4.00;;;;;;;11.29;82.99;99089.66;5051859;28;20055;-86
2021/10/20 08:35:29;;;;;;;23.23;3.38;;;;;;;11.30;82.73;99091.25;5059522;28;20048;-83
2021/10/20 08:38:00;;;;;;;12.52;3.50;;;;;;;11.33;82.79;99092.44;5057864;28;20048;-84
2021/10/20 08:40:29;;;;;;;11.75;4.75;;;;;;;11.35;82.72;99093.66;5041871;28;20462;-84
2021/10/20 08:42:57;;;;;;;17.63;3.80;;;;;;;11.36;82.80;99089.69;5057909;28;20127;-85
2021/10/20 08:45:24;;;;;;;18.70;4.25;;;;;;;11.32;82.73;99094.44;5061089;28;20130;-84
2021/10/20 08:47:52;;;;;;;16.50;3.40;;;;;;;11.33;82.57;99106.31;5058282;28;20098;-79
2021/10/20 08:50:25;;;;;;;15.68;2.88;;;;;;;11.27;82.81;99100.34;5054949;28;20045;-78
2021/10/20 08:52:52;;;;;;;20.25;5.43;;;;;;;11.22;82.85;99097.94;5062004;28;20039;-79
2021/10/20 08:55:20;;;;;;;16.13;3.85;;;;;;;11.25;82.95;99101.91;5066710;28;20052;-79
2021/10/20 08:57:49;;;;;;;13.32;3.40;;;;;;;11.26;82.80;99104.28;5043133;28;20076;-78
2021/10/20 09:00:17;;;;;;;17.48;3.05;;;;;;;11.23;82.66;99096.75;5069188;28;20135;-81
2021/10/20 09:02:47;;;;;;;14.20;2.55;;;;;;;11.21;82.91;99099.13;5063860;28;20047;-81
2021/10/20 09:05:20;;;;;;;21.25;3.67;;;;;;;11.20;82.94;99103.06;5045435;28;20435;-85
2021/10/20 09:07:53;;;;;;;12.23;2.40;;;;;;;11.25;83.07;99099.91;5038058;28;20137;-85
2021/10/20 09:10:22;;;;;;;15.50;3.72;;;;;;;11.27;83.10;99100.34;5065227;28;20041;-81
2021/10/20 09:12:50;;;;;;;8.63;2.55;;;;;;;11.25;83.00;99099.91;5060483;28;20049;-85
2021/10/20 09:15:20;;;;;;;12.77;3.40;;;;;;;11.34;83.36;99105.91;5068137;28;20115;-86
2021/10/20 09:17:48;;;;;;;19.92;4.50;;;;;;;11.38;83.32;99101.19;5066138;28;20503;-86
2021/10/20 09:20:35;;;;;;;15.82;4.38;;;;;;;11.40;83.41;99106.31;5049334;28;20041;-85
2021/10/20 09:23:10;;;;;;;12.77;4.13;;;;;;;11.45;83.50;99101.19;5046314;28;20055;-85
2021/10/20 09:25:39;;;;;;;18.95;4.32;;;;;;;11.48;83.44;99105.16;5061616;28;20036;-86
2021/10/20 09:28:10;;;;;;;13.20;4.72;;;;;;;11.51;83.43;99110.72;5046878;28;20052;-85
2021/10/20 09:30:40;;;;;;;12.43;3.93;;;;;;;11.53;83.16;99107.56;5064088;28;20127;-85
2021/10/20 09:33:09;;;;;;;12.27;4.53;;;;;;;11.47;83.29;99104.38;5046036;28;20045;-85
2021/10/20 09:35:37;;;;;;;12.00;3.05;;;;;;;11.51;83.41;99107.16;5048342;28;20147;-84
2021/10/20 09:38:04;;;;;;;13.98;4.15;;;;;;;11.54;83.13;99115.47;5067264;28;20139;-85
2021/10/20 09:40:39;;;;;;;15.07;2.80;;;;;;;11.57;83.09;99120.22;5064335;28;20060;-85
2021/10/20 09:43:08;;;;;;;15.55;3.25;;;;;;;11.57;83.14;99130.53;5060427;28;20036;-85
2021/10/20 09:45:41;;;;;;;12.38;3.05;;;;;;;11.57;83.30;99122.22;5045657;28;20099;-86
2021/10/20 09:48:20;;;;;;;9.45;3.20;;;;;;;11.55;83.22;99125.38;5064981;28;20068;-85
2021/10/20 09:51:12;;;;;;;18.23;3.75;;;;;;;11.54;83.25;99123.78;5046642;28;20052;-88
2021/10/20 09:53:44;;;;;;;13.38;2.83;;;;;;;11.51;82.75;99129.34;5044777;28;20454;-87
2021/10/20 09:56:28;;;;;;;14.63;3.77;;;;;;;11.42;83.09;99135.22;5046953;28;20135;-86
2021/10/20 09:58:55;;;;;;;14.55;3.58;;;;;;;11.42;83.39;99129.69;5060330;28;20041;-84
2021/10/20 10:01:25;;;;;;;9.68;2.80;;;;;;;11.41;83.39;99124.53;5063994;28;20040;-85
2021/10/20 10:03:56;;;;;;;11.13;3.35;;;;;;;11.48;83.39;99125.38;5041924;28;20044;-86
2021/10/20 10:06:23;;;;;;;15.40;3.40;;;;;;;11.52;83.12;99125.34;5058075;28;20124;-85
2021/10/20 10:08:50;;;;;;;14.02;5.13;;;;;;;11.59;83.05;99126.19;5065076;28;20737;-84
2021/10/20 10:11:17;;;;;;;15.13;3.85;;;;;;;11.63;82.85;99126.19;5044777;28;20476;-87
2021/10/20 10:13:51;;;;;;;14.52;2.25;;;;;;;11.65;82.79;99129.34;5043564;28;20048;-81
2021/10/20 10:16:27;;;;;;;22.50;5.80;;;;;;;11.65;82.94;99114.72;5028722;28;20052;-81
2021/10/20 10:18:57;;;;;;;7.75;2.30;;;;;;;11.69;83.16;99126.63;5059226;28;20080;-80
2021/10/20 10:21:31;;;;;;;13.25;3.00;;;;;;;11.74;83.26;99126.25;5060092;28;20114;-80
2021/10/20 10:24:01;;;;;;;10.25;2.90;;;;;;;11.78;83.06;99121.53;5059672;28;20049;-80
2021/10/20 10:26:33;;;;;;;16.98;3.33;;;;;;;11.83;83.11;99123.91;5057625;28;20040;-81
2021/10/20 10:29:12;;;;;;;9.80;2.47;;;;;;;11.90;83.25;99119.16;5057670;28;20460;-85
2021/10/20 10:31:44;;;;;;;13.52;4.82;;;;;;;11.96;83.18;99128.69;5059442;28;20070;-79
2021/10/20 10:34:43;;;;;;;15.63;3.55;;;;;;;12.05;83.34;99122.75;5060432;28;20131;-79
2021/10/20 10:37:21;;;;;;;6.65;2.38;;;;;;;12.10;83.05;99122.34;5012754;28;20055;-79
2021/10/20 10:39:50;;;;;;;14.95;3.17;;;;;;;12.16;83.07;99118.00;5042602;28;20150;-79
2021/10/20 10:42:18;;;;;;;14.52;2.92;;;;;;;12.17;82.81;99112.09;5047308;28;20101;-79
2021/10/20 10:44:49;;;;;;;16.15;3.67;;;;;;;12.21;82.49;99117.63;5044438;28;20123;-80
2021/10/20 10:49:56;;;;;;;7.43;2.42;;;;;;;12.26;82.09;99117.22;5054113;28;20051;-80
2021/10/20 10:52:33;;;;;;;10.48;2.85;;;;;;;12.31;81.64;99121.59;5043903;28;20044;-79
2021/10/20 10:55:14;;;;;;;16.83;2.53;;;;;;;12.38;80.86;99108.50;5060187;28;20040;-79
2021/10/20 10:57:40;;;;;;;12.32;3.72;;;;;;;12.40;80.97;99119.22;5046554;28;20135;-80
2021/10/20 11:00:18;;;;;;;9.45;2.42;;;;;;;12.42;80.56;99117.63;5044204;28;20139;-79
2021/10/20 11:02:52;;;;;;;13.52;3.80;;;;;;;12.39;80.25;99109.31;5061412;28;20637;-80
2021/10/20 11:05:27;;;;;;;8.93;2.33;;;;;;;12.36;79.91;99118.44;5059635;28;20211;-80
2021/10/20 11:08:05;;;;;;;13.48;2.60;;;;;;;12.32;79.21;99115.66;5058316;28;20037;-79
2021/10/20 11:10:34;;;;;;;12.02;2.35;;;;;;;12.27;79.51;99109.69;5059714;28;20404;-80
2021/10/20 11:13:01;;;;;;;8.50;1.65;;;;;;;12.26;79.68;99111.66;5044434;28;20163;-79
2021/10/20 11:15:30;;;;;;;12.13;2.80;;;;;;;12.33;79.80;99111.69;5057106;28;20538;-80
2021/10/20 11:17:58;;;;;;;15.48;2.95;;;;;;;12.40;79.92;99108.91;5061964;28;20400;-80
2021/10/20 11:20:28;;;;;;;16.23;1.88;;;;;;;12.43;79.75;99110.88;5047129;28;20094;-80
2021/10/20 11:23:00;;;;;;;7.43;2.50;;;;;;;12.47;79.35;99120.00;5043265;28;20489;-80
2021/10/20 11:25:27;;;;;;;;;;;;;;;12.48;78.83;99121.59;5061292;28;20045;-79
2021/10/20 11:27:56;;;;;;;10.20;1.73;;;;;;;12.54;79.29;99136.66;5063604;28;19970;-79
2021/10/20 11:30:29;;;;;;;13.70;2.80;;;;;;;12.60;78.78;99135.06;5063550;28;20589;-80
2021/10/20 11:32:55;;;;;;;8.43;2.28;;;;;;;12.72;78.53;99137.44;5046580;28;20174;-80
2021/10/20 11:35:25;;;;;;;14.15;1.73;;;;;;;12.73;78.14;99132.69;5043310;28;20051;-80